createdAt,value
2019-03-24T00:01:41.055Z,10.37
2019-03-24T00:04:41.325Z,16.87
2019-03-24T00:07:46.129Z,15.10
2019-03-24T00:10:51.012Z,13.30
2019-03-24T00:13:56.896Z,11.33
2019-03-24T00:17:02.317Z,14.13
2019-03-24T00:20:10.144Z,11.73
2019-03-24T00:23:14.916Z,9.63
2019-03-24T00:26:23.535Z,12.77
2019-03-24T00:29:28.693Z,10.73
2019-03-24T00:32:33.549Z,9.07
2019-03-24T00:35:38.389Z,10.97
2019-03-24T00:38:43.303Z,11.77
2019-03-24T00:41:48.227Z,10.17
2019-03-24T00:44:53.538Z,11.23
2019-03-24T00:47:58.785Z,14.93
2019-03-24T00:51:03.580Z,10.73
2019-03-24T00:54:08.827Z,8.97
2019-03-24T00:57:13.794Z,11.60
2019-03-24T01:00:23.683Z,10.87
2019-03-24T01:03:28.570Z,10.03
2019-03-24T01:06:34.364Z,8.77
2019-03-24T01:09:39.343Z,9.80
2019-03-24T01:12:44.316Z,8.73
2019-03-24T01:15:49.481Z,9.50
2019-03-24T01:18:54.310Z,17.03
2019-03-24T01:21:59.104Z,12.20
2019-03-24T01:25:04.065Z,11.67
2019-03-24T01:28:09.870Z,11.83
2019-03-24T01:31:14.727Z,13.30
2019-03-24T01:34:21.290Z,12.53
2019-03-24T01:37:26.486Z,12.03
2019-03-24T01:40:31.377Z,11.53
2019-03-24T01:43:36.208Z,12.77
2019-03-24T01:46:41.573Z,11.03
2019-03-24T01:49:46.508Z,15.13
2019-03-24T01:52:51.386Z,12.03
2019-03-24T01:55:56.184Z,11.50
2019-03-24T01:59:02.117Z,18.23
2019-03-24T02:02:10.826Z,16.00
2019-03-24T02:05:17.869Z,13.33
2019-03-24T02:08:22.857Z,18.03
2019-03-24T02:11:31.427Z,15.20
2019-03-24T02:14:36.304Z,14.90
2019-03-24T02:17:41.195Z,20.80
2019-03-24T02:20:46.032Z,20.10
2019-03-24T02:23:50.859Z,18.17
2019-03-24T02:26:56.149Z,18.77
2019-03-24T02:30:01.023Z,19.27
2019-03-24T02:33:09.854Z,17.80
2019-03-24T02:36:14.783Z,16.93
2019-03-24T02:39:20.102Z,14.80
2019-03-24T02:42:25.005Z,16.10
2019-03-24T02:45:29.900Z,14.63
2019-03-24T02:48:37.175Z,12.47
2019-03-24T02:51:42.524Z,12.97
2019-03-24T02:54:47.854Z,16.93
2019-03-24T02:57:52.747Z,19.00
2019-03-24T03:00:57.566Z,15.73
2019-03-24T03:04:02.358Z,18.67
2019-03-24T03:07:09.345Z,15.40
2019-03-24T03:10:14.846Z,13.40
2019-03-24T03:13:22.689Z,18.97
2019-03-24T03:16:38.195Z,18.53
2019-03-24T03:19:35.292Z,19.23
2019-03-24T03:22:42.526Z,20.73
2019-03-24T03:25:49.340Z,19.50
2019-03-24T03:28:54.241Z,15.87
2019-03-24T03:32:00.738Z,17.70
2019-03-24T03:35:06.515Z,18.67
2019-03-24T03:38:11.425Z,21.47
2019-03-24T03:41:16.800Z,20.10
2019-03-24T03:44:21.739Z,16.10
2019-03-24T03:47:26.717Z,18.77
2019-03-24T03:50:31.629Z,21.30
2019-03-24T03:53:37.393Z,19.80
2019-03-24T03:56:43.050Z,17.93
2019-03-24T03:59:59.445Z,19.77
2019-03-24T04:03:05.260Z,17.23
2019-03-24T04:06:10.225Z,21.50
2019-03-24T04:09:15.161Z,17.90
2019-03-24T04:12:20.561Z,14.33
2019-03-24T04:15:26.322Z,14.37
2019-03-24T04:18:31.194Z,15.57
2019-03-24T04:21:37.526Z,15.30
2019-03-24T04:24:42.855Z,17.47
2019-03-24T04:27:48.842Z,15.43
2019-03-24T04:30:53.715Z,18.57
2019-03-24T04:34:01.317Z,17.33
2019-03-24T04:37:08.557Z,22.67
2019-03-24T04:40:15.272Z,18.80
2019-03-24T04:43:20.140Z,20.70
2019-03-24T04:46:28.498Z,21.90
2019-03-24T04:49:33.390Z,17.83
2019-03-24T04:52:39.388Z,22.60
2019-03-24T04:55:44.355Z,16.67
2019-03-24T04:58:49.337Z,18.03
2019-03-24T05:01:54.238Z,21.03
2019-03-24T05:04:59.093Z,19.57
2019-03-24T05:08:04.605Z,17.53
2019-03-24T05:11:09.534Z,19.10
2019-03-24T05:14:15.535Z,15.07
2019-03-24T05:17:26.937Z,18.43
2019-03-24T05:20:28.665Z,17.53
2019-03-24T05:23:33.452Z,14.77
2019-03-24T05:26:38.247Z,15.63
2019-03-24T05:29:43.594Z,12.30
2019-03-24T05:32:48.454Z,14.20
2019-03-24T05:35:53.786Z,12.10
2019-03-24T05:38:58.747Z,11.27
2019-03-24T05:42:03.578Z,9.43
2019-03-24T05:45:09.674Z,9.27
2019-03-24T05:48:15.100Z,9.37
2019-03-24T05:51:20.041Z,11.57
2019-03-24T05:54:25.623Z,8.80
2019-03-24T05:57:31.427Z,9.40
2019-03-24T06:00:38.117Z,9.07
2019-03-24T06:03:42.988Z,9.73
2019-03-24T06:06:48.280Z,10.03
2019-03-24T06:09:53.949Z,10.90
2019-03-24T06:12:59.185Z,9.10
2019-03-24T06:16:05.516Z,9.80
2019-03-24T06:19:10.345Z,9.43
2019-03-24T06:22:17.485Z,9.77
2019-03-24T06:25:22.369Z,10.50
2019-03-24T06:28:27.690Z,11.97
2019-03-24T06:31:32.569Z,10.10
2019-03-24T06:34:37.543Z,10.67
2019-03-24T06:37:43.314Z,12.33
2019-03-24T06:40:48.125Z,13.07
2019-03-24T06:43:53.159Z,17.23
2019-03-24T06:46:58.050Z,13.50
2019-03-24T06:50:04.885Z,13.00
2019-03-24T06:53:10.051Z,13.40
2019-03-24T06:56:15.968Z,10.83
2019-03-24T06:59:23.550Z,12.03
2019-03-24T07:02:29.246Z,11.63
2019-03-24T07:05:34.142Z,10.17
2019-03-24T07:08:38.913Z,10.83
2019-03-24T07:11:43.808Z,10.73
2019-03-24T07:14:49.075Z,10.33
2019-03-24T07:17:53.839Z,9.90
2019-03-24T07:20:58.642Z,14.83
2019-03-24T07:24:03.559Z,17.10
2019-03-24T07:27:08.437Z,15.87
2019-03-24T07:30:13.784Z,12.73
2019-03-24T07:33:18.654Z,11.57
2019-03-24T07:36:23.628Z,12.57
2019-03-24T07:39:28.446Z,14.47
2019-03-24T07:42:33.627Z,14.97
2019-03-24T07:45:38.942Z,12.10
2019-03-24T07:48:44.883Z,12.80
2019-03-24T07:52:01.340Z,13.03
2019-03-24T07:55:10.763Z,13.83
2019-03-24T07:58:17.591Z,13.67
2019-03-24T08:01:23.833Z,13.33
2019-03-24T08:04:31.439Z,12.63
2019-03-24T08:07:37.155Z,14.33
2019-03-24T08:10:42.407Z,11.63
2019-03-24T08:13:53.793Z,10.03
2019-03-24T08:16:56.001Z,9.20
2019-03-24T08:20:09.182Z,8.93
2019-03-24T08:23:18.713Z,11.93
2019-03-24T08:26:25.421Z,10.93
2019-03-24T08:29:35.680Z,11.60
2019-03-24T08:33:02.397Z,10.47
2019-03-24T08:36:08.885Z,10.50
2019-03-24T08:39:13.765Z,9.60
2019-03-24T08:42:18.579Z,9.20
2019-03-24T08:45:30.411Z,8.33
2019-03-24T08:48:40.814Z,9.73
2019-03-24T08:51:54.707Z,10.67
2019-03-24T08:55:10.989Z,9.93
2019-03-24T08:58:18.660Z,10.07
2019-03-24T09:01:34.051Z,10.73
2019-03-24T09:04:48.710Z,10.70
2019-03-24T09:08:05.172Z,8.10
2019-03-24T09:11:13.040Z,8.27
2019-03-24T09:14:23.342Z,6.83
2019-03-24T09:17:30.439Z,11.63
2019-03-24T09:20:41.630Z,12.37
2019-03-24T09:23:43.058Z,9.13
2019-03-24T09:26:50.686Z,8.40
2019-03-24T09:29:55.602Z,9.10
2019-03-24T09:33:00.465Z,8.80
2019-03-24T09:36:05.300Z,9.83
2019-03-24T09:39:10.184Z,9.90
2019-03-24T09:42:14.990Z,8.73
2019-03-24T09:45:19.843Z,8.30
2019-03-24T09:48:24.834Z,7.73
2019-03-24T09:51:32.249Z,13.70
2019-03-24T09:54:37.060Z,11.57
2019-03-24T09:57:41.887Z,9.40
2019-03-24T10:00:47.228Z,10.73
2019-03-24T10:03:52.141Z,11.23
2019-03-24T10:06:58.008Z,9.93
2019-03-24T10:10:04.110Z,8.80
2019-03-24T10:13:08.996Z,9.43
2019-03-24T10:16:13.893Z,11.70
2019-03-24T10:19:21.355Z,11.20
2019-03-24T10:22:28.298Z,10.63
2019-03-24T10:25:33.161Z,11.17
2019-03-24T10:28:38.043Z,9.37
2019-03-24T10:31:43.058Z,7.40
2019-03-24T10:34:47.816Z,7.60
2019-03-24T10:37:54.979Z,9.70
2019-03-24T10:40:59.780Z,6.93
2019-03-24T10:44:05.768Z,8.57
2019-03-24T10:47:10.580Z,7.40
2019-03-24T10:50:15.784Z,8.90
2019-03-24T10:53:20.586Z,9.23
2019-03-24T10:56:26.767Z,8.00
2019-03-24T10:59:31.930Z,9.00
2019-03-24T11:02:36.906Z,8.33
2019-03-24T11:05:44.846Z,7.33
2019-03-24T11:08:49.640Z,6.80
2019-03-24T11:11:54.633Z,8.27
2019-03-24T11:14:59.446Z,8.40
2019-03-24T11:18:04.335Z,7.60
2019-03-24T11:21:09.544Z,7.97
2019-03-24T11:24:14.430Z,7.17
2019-03-24T11:27:19.469Z,7.93
2019-03-24T11:30:24.739Z,7.93
2019-03-24T11:33:29.811Z,7.57
2019-03-24T11:36:34.755Z,7.30
2019-03-24T11:39:40.769Z,6.80
2019-03-24T11:42:45.646Z,6.13
2019-03-24T11:45:51.382Z,7.17
2019-03-24T11:48:56.185Z,6.03
2019-03-24T11:52:01.940Z,7.13
2019-03-24T11:55:09.020Z,6.10
2019-03-24T11:58:14.007Z,6.10
2019-03-24T12:01:18.931Z,5.63
2019-03-24T12:04:24.220Z,6.20
2019-03-24T12:07:30.172Z,5.80
2019-03-24T12:10:35.151Z,6.40
2019-03-24T12:13:40.222Z,5.43
2019-03-24T12:16:45.022Z,6.83
2019-03-24T12:19:56.752Z,7.10
2019-03-24T12:22:57.472Z,7.93
2019-03-24T12:26:02.394Z,8.50
2019-03-24T12:29:07.321Z,8.33
2019-03-24T12:32:12.201Z,7.10
2019-03-24T12:35:17.181Z,8.17
2019-03-24T12:38:23.496Z,6.43
2019-03-24T12:41:28.405Z,6.47
2019-03-24T12:44:36.713Z,8.57
2019-03-24T12:47:41.632Z,6.90
2019-03-24T12:50:47.270Z,6.17
2019-03-24T12:53:53.213Z,6.07
2019-03-24T12:56:59.067Z,6.30
2019-03-24T13:00:04.585Z,7.40
2019-03-24T13:03:11.863Z,7.40
2019-03-24T13:06:17.487Z,7.60
2019-03-24T13:09:22.410Z,9.20
2019-03-24T13:12:33.901Z,8.77
2019-03-24T13:15:39.194Z,10.30
2019-03-24T13:18:44.551Z,11.00
2019-03-24T13:21:49.471Z,9.77
2019-03-24T13:24:54.752Z,9.50
2019-03-24T13:28:00.026Z,7.93
2019-03-24T13:31:05.070Z,11.33
2019-03-24T13:34:09.965Z,9.83
2019-03-24T13:37:15.636Z,9.30
2019-03-24T13:40:20.517Z,10.17
2019-03-24T13:43:25.423Z,11.33
2019-03-24T13:46:30.324Z,11.00
2019-03-24T13:49:35.221Z,12.00
2019-03-24T13:52:40.086Z,9.73
2019-03-24T13:55:45.024Z,11.80
2019-03-24T13:58:49.936Z,8.37
2019-03-24T14:01:54.838Z,8.63
2019-03-24T14:04:59.728Z,8.90
2019-03-24T14:08:05.952Z,7.07
2019-03-24T14:11:10.869Z,6.60
2019-03-24T14:14:15.741Z,6.30
2019-03-24T14:17:20.742Z,7.80
2019-03-24T14:20:25.715Z,9.20
2019-03-24T14:23:33.761Z,8.83
2019-03-24T14:26:38.653Z,9.60
2019-03-24T14:29:43.579Z,10.13
2019-03-24T14:32:48.485Z,7.60
2019-03-24T14:35:53.398Z,6.63
2019-03-24T14:39:00.191Z,8.63
2019-03-24T14:42:05.735Z,8.30
2019-03-24T14:45:11.212Z,7.70
2019-03-24T14:48:16.119Z,9.60
2019-03-24T14:51:21.455Z,9.70
2019-03-24T14:54:26.377Z,10.67
2019-03-24T14:57:33.568Z,10.60
2019-03-24T15:00:40.600Z,11.23
2019-03-24T15:03:45.507Z,9.90
2019-03-24T15:06:50.841Z,10.50
2019-03-24T15:09:57.413Z,9.23
2019-03-24T15:13:04.369Z,9.73
2019-03-24T15:16:09.324Z,9.43
2019-03-24T15:19:16.490Z,7.60
2019-03-24T15:22:24.746Z,7.23
2019-03-24T15:25:29.631Z,6.43
2019-03-24T15:28:34.553Z,6.93
2019-03-24T15:31:39.430Z,7.80
2019-03-24T15:34:44.358Z,6.67
2019-03-24T15:37:49.371Z,5.70
2019-03-24T15:40:54.928Z,6.83
2019-03-24T15:43:59.810Z,5.50
2019-03-24T15:47:04.709Z,6.80
2019-03-24T15:50:09.743Z,5.30
2019-03-24T15:53:14.701Z,4.40
2019-03-24T15:56:19.590Z,4.93
2019-03-24T15:59:24.779Z,5.23
2019-03-24T16:02:29.705Z,5.00
2019-03-24T16:05:34.641Z,4.70
2019-03-24T16:08:39.514Z,4.20
2019-03-24T16:11:44.416Z,3.90
2019-03-24T16:14:49.391Z,3.87
2019-03-24T16:17:55.442Z,3.70
2019-03-24T16:21:00.362Z,3.23
2019-03-24T16:24:24.052Z,3.07
2019-03-24T16:27:28.939Z,3.50
2019-03-24T16:30:35.349Z,3.57
2019-03-24T16:33:40.253Z,3.13
2019-03-24T16:36:45.604Z,3.10
2019-03-24T16:39:50.550Z,3.50
2019-03-24T16:42:55.443Z,3.10
2019-03-24T16:46:00.355Z,3.10
2019-03-24T16:49:05.306Z,2.97
2019-03-24T16:52:10.127Z,2.30
2019-03-24T16:55:15.404Z,2.97
2019-03-24T16:58:20.255Z,3.10
2019-03-24T17:01:26.323Z,2.60
2019-03-24T17:04:31.650Z,2.70
2019-03-24T17:07:39.424Z,2.60
2019-03-24T17:10:45.834Z,2.90
2019-03-24T17:13:50.755Z,2.90
2019-03-24T17:16:55.537Z,2.80
2019-03-24T17:20:00.575Z,2.93
2019-03-24T17:23:05.773Z,3.27
2019-03-24T17:26:10.583Z,2.93
2019-03-24T17:29:15.579Z,3.43
2019-03-24T17:32:20.786Z,3.10
2019-03-24T17:35:25.718Z,3.30
2019-03-24T17:38:31.208Z,5.00
2019-03-24T17:41:36.623Z,5.03
2019-03-24T17:44:41.541Z,4.10
2019-03-24T17:47:46.417Z,3.73
2019-03-24T17:50:51.237Z,3.63
2019-03-24T17:53:57.451Z,5.70
2019-03-24T17:57:03.695Z,5.37
2019-03-24T18:00:11.600Z,4.20
2019-03-24T18:03:16.540Z,3.87
2019-03-24T18:06:21.879Z,3.87
2019-03-24T18:09:28.958Z,3.63
2019-03-24T18:12:35.947Z,3.20
2019-03-24T18:15:43.373Z,3.33
2019-03-24T18:18:49.724Z,3.23
2019-03-24T18:21:55.791Z,3.57
2019-03-24T18:25:00.652Z,4.23
2019-03-24T18:28:06.381Z,3.67
2019-03-24T18:31:12.369Z,4.17
2019-03-24T18:34:17.615Z,3.80
2019-03-24T18:37:22.994Z,3.47
2019-03-24T18:40:28.972Z,3.43
2019-03-24T18:43:33.883Z,3.60
2019-03-24T18:46:38.820Z,3.60
2019-03-24T18:49:43.703Z,2.83
2019-03-24T18:52:50.185Z,3.43
2019-03-24T18:55:57.849Z,3.27
2019-03-24T18:59:03.080Z,3.30
2019-03-24T19:02:12.032Z,3.60
2019-03-24T19:05:18.020Z,3.57
2019-03-24T19:08:22.921Z,3.40
2019-03-24T19:11:28.264Z,3.70
2019-03-24T19:14:33.153Z,3.73
2019-03-24T19:17:38.330Z,3.70
2019-03-24T19:20:43.594Z,3.40
2019-03-24T19:23:51.383Z,3.73
2019-03-24T19:26:56.163Z,3.43
2019-03-24T19:30:01.138Z,3.70
2019-03-24T19:33:08.539Z,4.10
2019-03-24T19:36:13.460Z,3.80
2019-03-24T19:39:18.443Z,4.50
2019-03-24T19:42:25.053Z,3.80
2019-03-24T19:45:30.520Z,3.80
2019-03-24T19:48:35.604Z,3.83
2019-03-24T19:51:42.596Z,4.53
2019-03-24T19:54:47.877Z,4.00
2019-03-24T19:57:53.884Z,3.83
2019-03-24T20:00:59.852Z,4.33
2019-03-24T20:04:07.503Z,4.90
2019-03-24T20:07:13.135Z,4.47
2019-03-24T20:10:17.952Z,4.33
2019-03-24T20:13:23.256Z,4.03
2019-03-24T20:16:28.578Z,4.63
2019-03-24T20:19:33.478Z,4.33
2019-03-24T20:22:38.390Z,4.60
2019-03-24T20:25:43.326Z,5.20
2019-03-24T20:28:48.757Z,4.97
2019-03-24T20:31:53.737Z,5.70
2019-03-24T20:34:58.753Z,6.43
2019-03-24T20:38:04.500Z,5.53
2019-03-24T20:41:10.369Z,5.17
2019-03-24T20:44:15.334Z,6.27
2019-03-24T20:47:21.489Z,5.60
2019-03-24T20:50:26.981Z,5.40
2019-03-24T20:53:31.861Z,5.83
2019-03-24T20:56:37.183Z,5.97
2019-03-24T20:59:42.532Z,6.53
2019-03-24T21:02:47.446Z,5.87
2019-03-24T21:05:52.823Z,6.77
2019-03-24T21:08:57.709Z,7.00
2019-03-24T21:12:03.208Z,7.03
2019-03-24T21:15:11.523Z,7.43
2019-03-24T21:18:15.910Z,7.00
2019-03-24T21:21:20.796Z,7.40
2019-03-24T21:24:26.301Z,6.97
2019-03-24T21:27:31.855Z,7.20
2019-03-24T21:30:38.767Z,7.70
2019-03-24T21:33:43.666Z,8.40
2019-03-24T21:36:50.662Z,8.17
2019-03-24T21:39:56.913Z,8.23
2019-03-24T21:43:02.799Z,9.37
2019-03-24T21:46:07.966Z,9.17
2019-03-24T21:49:13.232Z,9.37
2019-03-24T21:52:18.555Z,9.70
2019-03-24T21:55:23.444Z,9.40
2019-03-24T21:58:28.366Z,10.13
2019-03-24T22:01:33.759Z,9.63
2019-03-24T22:04:38.658Z,9.83
2019-03-24T22:07:43.535Z,9.70
2019-03-24T22:10:49.255Z,10.90
2019-03-24T22:13:56.993Z,10.83
2019-03-24T22:17:01.878Z,10.73
2019-03-24T22:20:07.840Z,11.00
2019-03-24T22:23:12.727Z,11.47
2019-03-24T22:26:17.683Z,10.87
2019-03-24T22:29:22.507Z,11.73
2019-03-24T22:32:27.345Z,11.27
2019-03-24T22:35:32.761Z,11.20
2019-03-24T22:38:37.577Z,11.47
2019-03-24T22:41:43.911Z,13.67
2019-03-24T22:44:50.350Z,13.07
2019-03-24T22:47:55.692Z,13.83
2019-03-24T22:51:00.854Z,11.20
2019-03-24T22:54:06.155Z,12.87
2019-03-24T22:57:11.478Z,11.40
2019-03-24T23:00:23.253Z,12.97
2019-03-24T23:03:28.942Z,12.90
2019-03-24T23:06:36.178Z,11.40
2019-03-24T23:09:41.399Z,11.37
2019-03-24T23:12:46.217Z,13.13
2019-03-24T23:15:51.050Z,12.07
2019-03-24T23:18:56.295Z,12.43
2019-03-24T23:22:01.674Z,12.13
2019-03-24T23:25:07.318Z,11.57
2019-03-24T23:28:12.331Z,12.10
2019-03-24T23:31:17.291Z,11.47
2019-03-24T23:34:22.486Z,11.93
2019-03-24T23:37:27.393Z,12.10
2019-03-24T23:40:32.383Z,10.43
2019-03-24T23:43:37.277Z,10.83
2019-03-24T23:46:42.291Z,11.30
2019-03-24T23:49:47.117Z,12.47
2019-03-24T23:52:52.548Z,11.23
2019-03-24T23:55:57.424Z,10.63
2019-03-24T23:59:02.378Z,10.97
